• Join FlightAware (Why Join?)
  • Login
  • US Flag 
09:05AM EDT


 

Airport Tracker/Info


-or-


 

Live Flight TrackerFlight Track Log ✈ TRS460 ✈ 23-Apr-2013 ✈ KGRR - KBWI

Flight Track Log - Related Links

Times and Time Zones

All times are in EDT time to prevent confusion due to time zone crossing. See the TRS460 flight status page for this flight to view local times or setup timezone preferences in your user account.

Time Position Orientation Groundspeed Altitude Reporting Facility
EDT Latitude Longitude Course Direction KTS MPH feet Rate Location/Type
06:08PM 42.8708 -85.5586 166° South 150 173 2,600  Level Chicago Center
06:09PM 42.8311 -85.5456 166° South 194 223 4,400 1,800 Climbing Chicago Center
06:10PM 42.7967 -85.4392 114° Southeast 254 292 6,400 2,220 Climbing Chicago Center
06:12PM 42.7556 -85.3494 122° Southeast 278 320 9,000 2,100 Climbing Chicago Center
06:13PM 42.7119 -85.2553 122° Southeast 288 331 10,800 1,500 Climbing Chicago Center
06:14PM 42.6608 -85.1444 122° Southeast 333 383 12,100 1,680 Climbing Chicago Center
06:15PM 42.6169 -85.0156 115° Southeast 367 422 14,300 2,040 Climbing Chicago Center
06:16PM 42.5711 -84.8853 115° Southeast 380 437 16,400 2,220 Climbing Chicago Center
06:17PM 42.5125 -84.7208 116° Southeast 399 459 19,000 2,100 Climbing Chicago Center
06:18PM 42.4653 -84.5972 117° Southeast 399 459 20,500 1,740 Climbing Cleveland Center
06:19PM 42.4119 -84.4506 116° Southeast 419 482 22,300 1,740 Climbing Cleveland Center
06:20PM 42.3564 -84.2981 116° Southeast 434 499 24,000 1,380 Climbing Cleveland Center
06:21PM 42.2989 -84.1375 116° Southeast 452 520 25,100 1,320 Climbing Cleveland Center
06:22PM 42.2392 -83.9797 117° Southeast 465 535 26,700 1,380 Climbing Cleveland Center
06:23PM 42.1769 -83.8167 117° Southeast 477 549 27,900 1,080 Climbing Cleveland Center
06:24PM 42.1150 -83.6483 116° Southeast 484 557 28,900 1,140 Climbing Cleveland Center
06:25PM 42.0247 -83.5097 131° Southeast 490 564 30,200 1,440 Climbing Cleveland Center
06:26PM 41.9300 -83.3800 134° Southeast 490 564 31,800 1,260 Climbing Cleveland Center
06:27PM 41.8353 -83.2475 134° Southeast 482 555 32,800 600 Climbing Cleveland Center
06:28PM 41.7444 -83.1158 133° Southeast 482 555 33,000 540 Climbing Cleveland Center
06:29PM 41.6492 -82.9897 135° Southeast 482 555 33,900 780 Climbing Cleveland Center
06:30PM 41.5539 -82.8558 134° Southeast 481 554 34,600 540 Climbing Cleveland Center
06:31PM 41.4606 -82.7250 134° Southeast 487 560 35,000 180 Climbing Cleveland Center
06:32PM 41.3628 -82.5944 135° Southeast 487 560 35,000  Level Cleveland Center
06:33PM 41.2650 -82.4617 134° Southeast 492 566 35,000  Level Cleveland Center
06:34PM 41.1689 -82.3319 135° Southeast 492 566 35,000  Level Cleveland Center
06:35PM 41.0689 -82.1997 135° Southeast 498 573 35,000  Level Cleveland Center
06:36PM 40.9725 -82.0681 134° Southeast 498 573 35,000  Level Cleveland Center
06:37PM 40.8742 -81.9369 135° Southeast 498 573 35,000  Level Cleveland Center
06:38PM 40.7881 -81.8228 135° Southeast 498 573 35,000  Level Cleveland Center
06:39PM 40.6872 -81.6894 135° Southeast 498 573 35,000  Level Cleveland Center
06:40PM 40.5883 -81.5592 135° Southeast 504 580 35,000  Level Cleveland Center
06:41PM 40.4892 -81.4294 135° Southeast 498 573 35,000  Level Cleveland Center
06:42PM 40.3819 -81.2836 134° Southeast 498 573 35,000  Level Cleveland Center
06:43PM 40.2844 -81.1572 135° Southeast 498 573 35,000  Level Cleveland Center
06:44PM 40.1850 -81.0261 135° Southeast 498 573 35,000  Level Cleveland Center
06:45PM 40.0856 -80.9006 136° Southeast 503 579 35,000  Level Cleveland Center
06:46PM 40.0086 -80.7483 123° Southeast 503 579 35,000 -180 Level Cleveland Center
06:47PM 39.9692 -80.5669 106° East 492 566 34,700 -660 Descending Cleveland Center
06:48PM 39.9336 -80.3881 104° East 498 573 33,700 -900 Descending Cleveland Center
06:49PM 39.8978 -80.2097 105° East 504 580 33,000 -360 Descending Cleveland Center
06:50PM 39.8617 -80.0342 105° East 504 580 33,000  Level Cleveland Center
06:51PM 39.7969 -79.7289 105° East 489 563 33,000 -360 Level Washington Center
06:52PM 39.7611 -79.5514 105° East 494 568 32,100 -1,980 Descending Washington Center
06:53PM 39.7250 -79.3767 105° East 499 574 29,100 -2,760 Descending Washington Center
06:54PM 39.6886 -79.2050 105° East 499 574 26,600 -2,100 Descending Washington Center
06:55PM 39.6519 -79.0414 106° East 494 568 25,000 -1,020 Descending Washington Center
06:56PM 39.6186 -78.8917 106° East 480 552 24,600 -1,500 Descending Washington Center
06:57PM 39.5853 -78.7367 106° East 468 539 22,000 -2,760 Descending Washington Center
06:58PM 39.5533 -78.5953 106° East 441 507 19,100 -2,100 Descending Washington Center
06:59PM 39.5214 -78.4567 107° East 413 475 17,900 -1,260 Descending Washington Center
07:00PM 39.4911 -78.3156 105° East 408 470 16,600 -1,320 Descending Washington Center
07:01PM 39.4608 -78.1800 106° East 403 464 15,300 -900 Descending Washington Center
07:02PM 39.4325 -78.0419 105° East 403 464 14,900 -780 Descending Washington Center
07:03PM 39.4292 -77.8889 92° East 391 450 13,800 -1,080 Descending Washington Center
07:04PM 39.4358 -77.7519 86° East 385 443 12,800 -1,080 Descending Washington Center
07:05PM 39.4383 -77.6178 89° East 385 443 11,700 -900 Descending Washington Center
07:06PM 39.4422 -77.4994 88° East 358 412 11,000 -360 Descending Washington Center
07:07PM 39.4439 -77.3894 89° East 321 369 11,000  Level Washington Center
07:08PM 39.4500 -77.3500 79° East 313 360 11,000  Level Potomac TRACON
07:09PM 39.4667 -77.2500 78° East 311 358 11,000  Level Potomac TRACON
07:10PM 39.4833 -77.1333 79° East 311 358 11,000 -840 Level Potomac TRACON
07:11PM 39.4833 -77.0333 90° East 302 348 9,400 -2,040 Descending Potomac TRACON
07:12PM 39.4833 -76.9167 90° East 297 342 6,900 -2,400 Descending Potomac TRACON
07:13PM 39.4500 -76.8333 117° Southeast 278 320 4,400 -1,440 Descending Potomac TRACON
07:14PM 39.3833 -76.7833 150° Southeast 272 313 4,000 -240 Descending Potomac TRACON
07:15PM 39.3333 -76.8333 218° Southwest 261 300 4,000  Level Potomac TRACON
07:16PM 39.2833 -76.8833 218° Southwest 216 249 4,000 -180 Level Potomac TRACON
07:17PM 39.2333 -76.9167 207° Southwest 217 250 3,700 -540 Descending Potomac TRACON
07:18PM 39.1833 -76.8833 153° Southeast 219 252 3,000 -900 Descending Potomac TRACON
07:19PM 39.1833 -76.8000 90° East 163 188 1,900 -900 Descending Potomac TRACON
07:20PM 39.1833 -76.7500 90° East 130 150 1,200 -720 Descending Potomac TRACON
07:21PM 39.1833 -76.7000 90° East 132 152 500 -720 Descending Potomac TRACON
07:23PM 39.1667 -76.6667 142° Southeast  Level FlightAware Approximate
07:30PM 39.1754 -76.6683 142° Southeast  Level Estimated